Time;durP1;ratioP1;P1;durP2;ratioP2;P2;SDS_P1;SDS_P2;PMS_P1;PMS_P2;Temp;Humidity;BMP_temperature;BMP_pressure;BME280_temperature;BME280_humidity;BME280_pressure;Samples;Min_cycle;Max_cycle;Signal;HPM_P1;HPM_P2
2023/06/23 00:00:11;;;;;;;11.40;8.77;;;16.40;99.90;;;;;;5116252;27;20122;-63
2023/06/23 00:02:40;;;;;;;11.03;9.57;;;16.40;99.90;;;;;;5134992;27;20477;-62
2023/06/23 00:05:10;;;;;;;11.55;8.70;;;16.40;99.90;;;;;;5119366;27;20794;-64
2023/06/23 00:07:37;;;;;;;12.23;9.80;;;16.40;99.90;;;;;;5131628;27;20063;-62
2023/06/23 00:10:06;;;;;;;12.98;9.65;;;16.40;99.90;;;;;;5116269;27;20106;-63
2023/06/23 00:12:36;;;;;;;13.32;9.48;;;16.40;99.90;;;;;;5116476;27;20047;-65
2023/06/23 00:15:07;;;;;;;13.10;10.02;;;16.40;99.90;;;;;;5120255;27;20042;-62
2023/06/23 00:17:33;;;;;;;12.23;9.57;;;16.40;99.90;;;;;;5152714;27;20087;-63
2023/06/23 00:19:59;;;;;;;15.43;9.27;;;16.40;99.90;;;;;;5136587;27;20035;-63
2023/06/23 00:22:27;;;;;;;11.43;9.27;;;16.40;99.90;;;;;;5135803;27;20102;-63
2023/06/23 00:24:54;;;;;;;13.35;9.85;;;16.40;99.90;;;;;;5136057;27;20430;-62
2023/06/23 00:27:19;;;;;;;11.52;10.32;;;16.40;99.90;;;;;;5136354;27;20396;-63
2023/06/23 00:29:46;;;;;;;12.40;10.00;;;16.30;99.90;;;;;;5136623;27;20043;-62
2023/06/23 00:32:11;;;;;;;13.50;10.13;;;16.30;99.90;;;;;;5129354;27;20128;-64
2023/06/23 00:34:37;;;;;;;12.30;10.23;;;16.30;99.90;;;;;;5115741;27;20060;-65
2023/06/23 00:37:03;;;;;;;13.95;10.45;;;16.30;99.90;;;;;;5131290;27;20129;-60
2023/06/23 00:39:29;;;;;;;12.35;10.70;;;16.30;99.90;;;;;;5135703;27;20053;-63
2023/06/23 00:41:54;;;;;;;13.25;10.50;;;16.40;99.90;;;;;;5136301;27;20046;-63
2023/06/23 00:44:20;;;;;;;13.65;10.88;;;16.30;99.90;;;;;;5136215;27;20405;-63
2023/06/23 00:46:46;;;;;;;14.35;10.52;;;16.30;99.90;;;;;;5150226;27;20150;-62
2023/06/23 00:49:15;;;;;;;14.35;11.48;;;16.40;99.90;;;;;;5124116;27;20042;-62
2023/06/23 00:51:41;;;;;;;12.65;11.10;;;16.30;99.90;;;;;;5120326;27;20047;-63
2023/06/23 00:54:07;;;;;;;12.50;11.20;;;16.30;99.90;;;;;;5133705;27;20039;-63
2023/06/23 00:56:33;;;;;;;14.65;11.50;;;16.30;99.90;;;;;;5116505;27;20051;-61
2023/06/23 00:58:59;;;;;;;14.65;11.63;;;16.30;99.90;;;;;;5134601;27;20043;-62
2023/06/23 01:01:25;;;;;;;15.63;11.50;;;16.30;99.90;;;;;;5114007;27;20064;-63
2023/06/23 01:03:51;;;;;;;18.25;12.43;;;16.40;99.90;;;;;;5115217;27;20401;-63
2023/06/23 01:06:46;;;;;;;14.90;12.35;;;16.30;99.90;;;;;;5135563;27;20039;-62
2023/06/23 01:09:15;;;;;;;15.63;12.18;;;16.30;99.90;;;;;;5138679;27;20039;-63
2023/06/23 01:12:01;;;;;;;13.95;12.32;;;16.30;99.90;;;;;;5114754;27;20039;-64
2023/06/23 01:14:39;;;;;;;15.63;13.00;;;16.40;99.90;;;;;;5135822;27;20053;-63
2023/06/23 01:17:24;;;;;;;17.70;13.13;;;16.30;99.90;;;;;;5153882;27;20053;-64
2023/06/23 01:20:12;;;;;;;22.30;14.57;;;16.40;99.90;;;;;;5115239;27;20055;-62
2023/06/23 01:22:47;;;;;;;20.10;14.20;;;16.30;99.90;;;;;;5130867;27;20065;-61
2023/06/23 01:25:44;;;;;;;16.30;14.57;;;16.30;99.90;;;;;;5096652;27;20124;-62
2023/06/23 01:28:39;;;;;;;17.88;16.00;;;16.30;99.90;;;;;;5097298;27;20096;-62
2023/06/23 01:31:07;;;;;;;19.25;15.10;;;16.30;99.90;;;;;;5135310;27;20034;-61
2023/06/23 01:33:43;;;;;;;20.27;16.75;;;16.30;99.90;;;;;;5117957;27;20030;-62
2023/06/23 01:36:14;;;;;;;19.65;15.95;;;16.30;99.90;;;;;;5135600;27;20056;-62
2023/06/23 01:38:46;;;;;;;24.10;18.02;;;16.30;99.90;;;;;;5135330;27;20089;-63
2023/06/23 01:41:20;;;;;;;20.67;17.65;;;16.30;99.90;;;;;;5121027;27;20042;-62
2023/06/23 01:43:50;;;;;;;20.90;17.33;;;16.30;99.90;;;;;;5114470;27;20446;-62
2023/06/23 01:46:25;;;;;;;26.83;17.15;;;16.30;99.90;;;;;;5132856;27;20031;-63
2023/06/23 01:48:55;;;;;;;22.13;18.75;;;16.30;99.90;;;;;;5133042;27;20074;-64
2023/06/23 01:51:23;;;;;;;22.48;18.45;;;16.30;99.90;;;;;;5116200;27;20039;-63
2023/06/23 01:53:50;;;;;;;25.85;19.67;;;16.30;99.90;;;;;;5114390;27;20043;-62
2023/06/23 01:56:18;;;;;;;24.90;19.23;;;16.30;99.90;;;;;;5133398;27;20033;-64
2023/06/23 01:58:46;;;;;;;22.20;19.08;;;16.30;99.90;;;;;;5134453;27;20047;-63
2023/06/23 02:01:13;;;;;;;22.50;18.52;;;16.30;99.90;;;;;;5121237;27;20398;-63
2023/06/23 02:03:40;;;;;;;20.67;18.48;;;16.30;99.90;;;;;;5132528;27;20389;-62
2023/06/23 02:06:07;;;;;;;23.88;19.27;;;16.30;99.90;;;;;;5132452;27;20042;-62
2023/06/23 02:08:34;;;;;;;21.63;18.17;;;16.30;99.90;;;;;;5132390;27;20061;-62
2023/06/23 02:11:01;;;;;;;21.55;18.88;;;16.30;99.90;;;;;;5136315;27;20035;-62
2023/06/23 02:13:29;;;;;;;20.15;18.00;;;16.30;99.90;;;;;;5126798;27;20057;-62
2023/06/23 02:15:56;;;;;;;22.38;19.05;;;16.30;99.90;;;;;;5152824;27;20035;-62
2023/06/23 02:18:24;;;;;;;23.85;18.70;;;16.30;99.90;;;;;;5153255;27;20026;-64
2023/06/23 02:20:51;;;;;;;22.38;18.77;;;16.20;99.90;;;;;;5133665;27;20030;-64
2023/06/23 02:23:18;;;;;;;23.75;19.40;;;16.20;99.90;;;;;;5114015;27;20027;-63
2023/06/23 02:25:44;;;;;;;22.40;18.75;;;16.20;99.90;;;;;;5131960;27;20043;-63
2023/06/23 02:28:11;;;;;;;24.75;20.02;;;16.20;99.90;;;;;;5131945;27;20670;-64
2023/06/23 02:30:39;;;;;;;21.65;18.67;;;16.20;99.90;;;;;;5114535;27;20037;-64
2023/06/23 02:33:05;;;;;;;24.92;19.75;;;16.20;99.90;;;;;;5120332;27;20058;-62
2023/06/23 02:35:33;;;;;;;24.05;19.42;;;16.10;99.90;;;;;;5113134;27;20101;-63
2023/06/23 02:38:05;;;;;;;23.42;19.60;;;16.10;99.90;;;;;;5131731;27;20117;-64
2023/06/23 02:40:33;;;;;;;;;;;16.10;99.90;;;;;;5132342;27;20046;-64
2023/06/23 02:43:06;;;;;;;25.20;19.02;;;16.10;99.90;;;;;;5138213;27;19959;-62
2023/06/23 02:45:42;;;;;;;25.02;19.67;;;16.10;99.90;;;;;;5112968;27;20504;-65
2023/06/23 02:48:15;;;;;;;24.38;20.13;;;16.00;99.90;;;;;;5129659;27;20046;-62
2023/06/23 02:50:44;;;;;;;22.90;19.23;;;16.00;99.90;;;;;;5152067;27;20362;-62
2023/06/23 02:53:16;;;;;;;25.67;20.55;;;16.00;99.90;;;;;;5130904;27;20047;-64
2023/06/23 02:55:46;;;;;;;22.15;19.75;;;16.00;99.90;;;;;;5113149;27;20103;-63
2023/06/23 02:58:15;;;;;;;24.45;19.90;;;15.90;99.90;;;;;;5112565;27;20212;-62
2023/06/23 03:00:42;;;;;;;22.98;19.25;;;15.90;99.90;;;;;;5113373;27;20126;-63
2023/06/23 03:03:13;;;;;;;25.60;19.15;;;15.90;99.90;;;;;;5112383;27;20035;-62
2023/06/23 03:05:38;;;;;;;25.10;19.70;;;15.90;99.90;;;;;;5132571;27;20050;-63
2023/06/23 03:08:05;;;;;;;22.00;19.60;;;15.90;99.90;;;;;;5151733;27;20084;-61
2023/06/23 03:10:32;;;;;;;25.85;19.77;;;15.80;99.90;;;;;;5152172;27;20094;-62
2023/06/23 03:13:00;;;;;;;22.25;18.50;;;15.80;99.90;;;;;;5133038;27;20032;-63
2023/06/23 03:15:27;;;;;;;22.17;18.95;;;15.80;99.90;;;;;;5126907;27;20031;-61
2023/06/23 03:17:58;;;;;;;22.35;19.40;;;15.80;99.90;;;;;;5133437;27;20046;-64
2023/06/23 03:20:37;;;;;;;24.77;19.45;;;15.80;99.90;;;;;;5133920;27;20058;-61
2023/06/23 03:23:13;;;;;;;21.05;18.80;;;15.80;99.90;;;;;;5133650;27;20473;-64
2023/06/23 03:25:40;;;;;;;23.50;18.67;;;15.70;99.90;;;;;;5134866;27;20090;-61
2023/06/23 03:28:10;;;;;;;23.38;19.13;;;15.80;99.90;;;;;;5116970;27;20480;-62
2023/06/23 03:30:51;;;;;;;23.95;18.23;;;15.70;99.90;;;;;;5117296;27;20064;-64
2023/06/23 03:33:17;;;;;;;23.02;19.13;;;15.70;99.90;;;;;;5117021;27;20042;-62
2023/06/23 03:35:44;;;;;;;22.40;20.00;;;15.70;99.90;;;;;;5122285;27;20045;-62
2023/06/23 03:38:14;;;;;;;21.77;19.13;;;15.60;99.90;;;;;;5137658;27;20042;-62
2023/06/23 03:40:46;;;;;;;23.13;19.17;;;15.60;99.90;;;;;;5135167;27;20046;-63
2023/06/23 03:43:19;;;;;;;22.67;19.33;;;15.60;99.90;;;;;;5116917;27;20156;-64
2023/06/23 03:45:50;;;;;;;22.70;18.90;;;15.60;99.90;;;;;;5116758;27;20083;-64
2023/06/23 03:48:17;;;;;;;23.88;18.98;;;15.60;99.90;;;;;;5135926;27;20043;-64
2023/06/23 03:50:45;;;;;;;23.67;18.88;;;15.50;99.90;;;;;;5137169;27;20069;-63
2023/06/23 03:53:12;;;;;;;24.17;19.45;;;15.50;99.90;;;;;;5155717;27;20038;-63
2023/06/23 03:55:39;;;;;;;25.05;19.20;;;15.50;99.90;;;;;;5155840;27;20031;-63
2023/06/23 03:58:07;;;;;;;23.95;19.13;;;15.50;99.90;;;;;;5124990;27;20528;-61
2023/06/23 04:00:35;;;;;;;23.30;19.38;;;15.50;99.90;;;;;;5135147;27;20063;-64
2023/06/23 04:03:04;;;;;;;24.88;19.38;;;15.50;99.90;;;;;;5116333;27;20047;-64
2023/06/23 04:05:31;;;;;;;23.85;19.15;;;15.50;99.90;;;;;;5134650;27;20132;-63
2023/06/23 04:07:59;;;;;;;22.20;19.67;;;15.50;99.90;;;;;;5121791;27;20485;-65
2023/06/23 04:10:28;;;;;;;21.52;19.15;;;15.50;99.90;;;;;;5116538;27;20049;-64
2023/06/23 04:12:54;;;;;;;23.35;19.90;;;15.50;99.90;;;;;;5133692;27;20049;-64
2023/06/23 04:15:24;;;;;;;24.08;19.58;;;15.50;99.90;;;;;;5136766;27;20031;-63
2023/06/23 04:17:52;;;;;;;22.13;19.70;;;15.40;99.90;;;;;;5134776;27;20501;-63
2023/06/23 04:20:19;;;;;;;24.88;21.25;;;15.40;99.90;;;;;;5116020;27;20039;-63
2023/06/23 04:22:48;;;;;;;23.42;19.17;;;15.50;99.90;;;;;;5147762;27;20042;-62
2023/06/23 04:25:16;;;;;;;22.00;18.42;;;15.50;99.90;;;;;;5154911;27;20050;-63
2023/06/23 04:27:43;;;;;;;22.25;18.90;;;15.50;99.90;;;;;;5136879;27;20530;-61
2023/06/23 04:30:11;;;;;;;26.58;19.58;;;15.50;99.90;;;;;;5152619;27;20038;-63
2023/06/23 04:32:38;;;;;;;23.80;19.30;;;15.50;99.90;;;;;;5118761;27;20566;-62
2023/06/23 04:35:05;;;;;;;23.73;19.83;;;15.60;99.90;;;;;;5117298;27;20047;-62
2023/06/23 04:37:39;;;;;;;22.75;19.80;;;15.60;99.90;;;;;;5114761;27;20039;-63
2023/06/23 04:40:20;;;;;;;22.42;19.40;;;15.60;99.90;;;;;;5115084;27;20120;-64
2023/06/23 04:42:53;;;;;;;24.55;20.70;;;15.70;99.90;;;;;;5136259;27;20061;-62
2023/06/23 04:45:23;;;;;;;22.95;20.52;;;15.70;99.90;;;;;;5116007;27;20047;-63
2023/06/23 04:47:57;;;;;;;21.10;18.30;;;15.80;99.90;;;;;;5129672;27;20134;-62
2023/06/23 04:50:26;;;;;;;21.85;18.95;;;15.80;99.90;;;;;;5132759;27;20043;-63
2023/06/23 04:52:55;;;;;;;24.25;20.15;;;15.90;99.90;;;;;;5133785;27;20037;-63
2023/06/23 04:55:29;;;;;;;23.67;21.08;;;15.90;99.90;;;;;;5134763;27;20042;-63
2023/06/23 04:57:56;;;;;;;26.75;21.35;;;16.00;99.90;;;;;;5154357;27;20046;-62
2023/06/23 05:00:24;;;;;;;28.35;22.70;;;16.00;99.90;;;;;;5135536;27;20054;-62
2023/06/23 05:02:52;;;;;;;22.67;20.35;;;16.00;99.90;;;;;;5110487;27;20043;-62
2023/06/23 05:05:23;;;;;;;24.70;21.42;;;16.00;99.90;;;;;;5139629;27;20122;-62
2023/06/23 05:07:52;;;;;;;25.98;23.15;;;16.10;99.90;;;;;;5115432;27;20408;-63
2023/06/23 05:10:20;;;;;;;26.42;22.63;;;16.10;99.90;;;;;;5133605;27;20035;-63
2023/06/23 05:12:49;;;;;;;30.52;24.52;;;16.10;99.90;;;;;;5152047;27;20070;-63
2023/06/23 05:15:17;;;;;;;30.23;25.40;;;16.10;99.90;;;;;;5132821;27;20054;-63
2023/06/23 05:17:44;;;;;;;31.17;26.52;;;16.10;99.90;;;;;;5117100;27;20051;-63
2023/06/23 05:20:11;;;;;;;34.88;27.38;;;16.10;99.90;;;;;;5149164;27;20030;-62
2023/06/23 05:22:38;;;;;;;35.15;26.52;;;16.10;99.90;;;;;;5153691;27;20035;-62
2023/06/23 05:25:06;;;;;;;29.52;26.25;;;16.10;99.90;;;;;;5129901;27;20042;-63
2023/06/23 05:27:35;;;;;;;27.63;24.52;;;16.10;99.90;;;;;;5117041;27;20050;-65
2023/06/23 05:30:03;;;;;;;32.05;25.25;;;16.10;99.90;;;;;;5114998;27;20377;-63
2023/06/23 05:32:32;;;;;;;30.77;23.77;;;16.10;99.90;;;;;;5114766;27;20037;-64
2023/06/23 05:35:03;;;;;;;30.60;23.50;;;16.10;99.90;;;;;;5114404;27;20067;-63
2023/06/23 05:37:33;;;;;;;29.88;22.95;;;16.10;99.90;;;;;;5132411;27;20047;-64
2023/06/23 05:40:03;;;;;;;26.45;23.45;;;16.20;99.90;;;;;;5121067;27;20055;-62
2023/06/23 05:42:32;;;;;;;28.55;24.15;;;16.20;99.90;;;;;;5126071;27;20042;-63
2023/06/23 05:44:59;;;;;;;30.23;23.42;;;16.20;99.90;;;;;;5134804;27;20095;-64
2023/06/23 05:47:30;;;;;;;29.30;24.17;;;16.30;99.90;;;;;;5126603;27;20091;-62
2023/06/23 05:50:01;;;;;;;29.77;23.95;;;16.40;99.90;;;;;;5125489;27;20425;-63
2023/06/23 05:52:29;;;;;;;28.00;23.42;;;16.60;99.90;;;;;;5133797;27;20078;-63
2023/06/23 05:54:57;;;;;;;28.00;23.35;;;16.70;99.90;;;;;;5153087;27;20046;-65
2023/06/23 05:57:30;;;;;;;27.27;22.27;;;16.80;99.90;;;;;;5116559;27;20055;-62
2023/06/23 06:00:10;;;;;;;;;;;17.00;99.90;;;;;;5118797;27;20100;-64
2023/06/23 06:02:39;;;;;;;23.92;20.55;;;17.10;99.90;;;;;;5132293;27;19920;-64
2023/06/23 06:05:08;;;;;;;22.45;20.00;;;17.30;99.90;;;;;;5113876;27;20499;-65
2023/06/23 06:07:39;;;;;;;24.50;19.95;;;17.50;99.90;;;;;;5132349;27;20517;-64
2023/06/23 06:10:07;;;;;;;20.35;18.17;;;17.60;99.90;;;;;;5119101;27;20482;-64
2023/06/23 06:12:35;;;;;;;20.25;17.52;;;17.80;99.90;;;;;;5127209;27;20380;-63
2023/06/23 06:15:02;;;;;;;18.75;15.52;;;17.90;99.90;;;;;;5113510;27;20050;-64
2023/06/23 06:17:30;;;;;;;18.95;16.20;;;17.90;99.90;;;;;;5113981;27;20111;-63
2023/06/23 06:19:59;;;;;;;20.83;16.98;;;17.90;99.90;;;;;;5131974;27;20039;-63
2023/06/23 06:22:29;;;;;;;19.95;15.70;;;18.00;99.90;;;;;;5115980;27;20035;-64
2023/06/23 06:24:57;;;;;;;18.50;15.57;;;18.20;99.90;;;;;;5134033;27;20494;-64
2023/06/23 06:27:24;;;;;;;18.80;14.85;;;18.30;99.90;;;;;;5113280;27;20043;-64
2023/06/23 06:29:52;;;;;;;16.40;14.48;;;18.40;99.90;;;;;;5136885;27;20050;-63
2023/06/23 06:32:19;;;;;;;16.75;14.25;;;18.60;99.90;;;;;;5120031;27;20046;-64
2023/06/23 06:34:47;;;;;;;15.25;12.73;;;18.70;99.90;;;;;;5131774;27;20058;-63
2023/06/23 06:37:16;;;;;;;14.40;12.48;;;18.70;99.90;;;;;;5113136;27;20043;-62
2023/06/23 06:39:43;;;;;;;13.00;11.52;;;18.80;99.90;;;;;;5131357;27;20043;-64
2023/06/23 06:42:09;;;;;;;13.95;11.90;;;19.00;99.90;;;;;;5120197;27;20481;-62
2023/06/23 06:44:35;;;;;;;14.45;11.73;;;19.00;99.90;;;;;;5112903;27;20046;-64
2023/06/23 06:47:03;;;;;;;13.50;10.93;;;19.20;99.90;;;;;;5131167;27;20045;-62
2023/06/23 06:49:30;;;;;;;13.82;11.48;;;19.20;99.90;;;;;;5113218;27;20543;-64
2023/06/23 06:51:59;;;;;;;12.85;10.98;;;19.40;99.90;;;;;;5095833;27;20118;-64
2023/06/23 06:54:26;;;;;;;12.07;10.43;;;19.50;99.90;;;;;;5122011;27;20088;-66
2023/06/23 06:56:54;;;;;;;11.40;9.20;;;19.60;99.90;;;;;;5112613;27;20063;-64
2023/06/23 06:59:20;;;;;;;10.35;9.20;;;19.70;99.90;;;;;;5112329;27;20051;-64
2023/06/23 07:01:47;;;;;;;9.80;8.77;;;19.80;99.90;;;;;;5113167;27;20619;-65
2023/06/23 07:04:13;;;;;;;10.02;8.65;;;19.80;99.90;;;;;;5117910;27;20104;-63
2023/06/23 07:06:40;;;;;;;9.25;8.35;;;19.90;99.90;;;;;;5113012;27;20070;-64
2023/06/23 07:09:06;;;;;;;9.80;8.43;;;20.00;99.90;;;;;;5112414;27;20070;-63
2023/06/23 07:11:32;;;;;;;8.38;7.57;;;20.10;99.90;;;;;;5113141;27;20035;-64
2023/06/23 07:13:58;;;;;;;11.20;7.03;;;20.20;99.90;;;;;;5133152;27;20046;-63
2023/06/23 07:16:30;;;;;;;7.82;6.80;;;20.30;99.90;;;;;;5113565;27;20117;-65
2023/06/23 07:18:56;;;;;;;10.35;6.80;;;20.30;99.90;;;;;;5111632;27;21523;-64
2023/06/23 07:21:22;;;;;;;8.00;7.05;;;20.40;99.90;;;;;;5131424;27;20039;-65
2023/06/23 07:23:47;;;;;;;6.93;5.93;;;20.40;99.90;;;;;;5112382;27;20046;-64
2023/06/23 07:26:13;;;;;;;7.63;6.32;;;20.50;99.90;;;;;;5115554;27;20047;-64
2023/06/23 07:28:38;;;;;;;6.38;5.60;;;20.60;99.90;;;;;;5112768;27;20118;-64
2023/06/23 07:31:05;;;;;;;7.18;5.45;;;20.60;99.90;;;;;;5112696;27;20478;-65
2023/06/23 07:33:30;;;;;;;7.30;5.30;;;20.80;99.90;;;;;;5112751;27;20042;-63
2023/06/23 07:35:56;;;;;;;8.82;5.50;;;20.90;99.90;;;;;;5113964;27;20425;-65
2023/06/23 07:38:22;;;;;;;5.93;4.82;;;21.00;99.90;;;;;;5112754;27;20394;-63
2023/06/23 07:40:47;;;;;;;5.75;4.63;;;21.10;99.90;;;;;;5112572;27;20035;-63
2023/06/23 07:43:13;;;;;;;6.63;4.15;;;21.10;99.90;;;;;;5112334;27;20440;-63
2023/06/23 07:45:39;;;;;;;5.22;4.50;;;21.20;99.90;;;;;;5112489;27;20409;-63
2023/06/23 07:48:05;;;;;;;7.07;4.43;;;21.30;99.90;;;;;;5132621;27;20031;-64
2023/06/23 07:50:30;;;;;;;6.20;4.53;;;21.30;99.90;;;;;;5130922;27;20038;-64
2023/06/23 07:52:56;;;;;;;6.32;4.28;;;21.50;99.90;;;;;;5112205;27;20065;-63
2023/06/23 07:55:22;;;;;;;5.75;4.40;;;21.60;99.90;;;;;;5095056;27;20076;-66
2023/06/23 07:57:48;;;;;;;4.57;3.78;;;21.70;99.90;;;;;;5125392;27;20051;-66
2023/06/23 08:00:15;;;;;;;5.38;3.92;;;21.80;99.90;;;;;;5131813;27;20054;-65
2023/06/23 08:02:44;;;;;;;5.63;4.00;;;21.90;99.90;;;;;;5132745;27;20034;-64
2023/06/23 08:05:10;;;;;;;5.40;3.70;;;22.00;99.90;;;;;;5151067;27;20035;-65
2023/06/23 08:07:35;;;;;;;5.70;4.00;;;22.10;99.90;;;;;;5130474;27;20032;-63
2023/06/23 08:10:01;;;;;;;6.43;3.80;;;22.20;99.90;;;;;;5113184;27;20126;-64
2023/06/23 08:12:27;;;;;;;4.25;3.47;;;22.30;99.90;;;;;;5115771;27;20079;-63
2023/06/23 08:14:52;;;;;;;5.40;4.22;;;22.20;99.90;;;;;;5116947;27;20114;-63
2023/06/23 08:17:18;;;;;;;5.15;3.67;;;22.20;99.90;;;;;;5134454;27;20035;-64
2023/06/23 08:19:44;;;;;;;5.75;4.07;;;22.30;99.90;;;;;;5130854;27;20126;-64
2023/06/23 08:22:09;;;;;;;4.60;3.72;;;22.40;99.90;;;;;;5118206;27;20051;-62
2023/06/23 08:24:35;;;;;;;5.57;3.25;;;22.60;99.90;;;;;;5115643;27;20493;-64
2023/06/23 08:27:01;;;;;;;6.82;3.55;;;22.80;99.90;;;;;;5115681;27;20394;-65
2023/06/23 08:29:27;;;;;;;5.20;3.17;;;22.80;99.90;;;;;;5117917;27;20051;-66
2023/06/23 08:31:52;;;;;;;6.68;4.20;;;22.90;99.90;;;;;;5139438;27;20055;-64
2023/06/23 08:34:18;;;;;;;4.10;3.45;;;23.00;99.90;;;;;;5136079;27;20528;-63
2023/06/23 08:36:44;;;;;;;5.90;3.85;;;23.10;99.90;;;;;;5116004;27;20054;-64
2023/06/23 08:39:10;;;;;;;6.35;3.80;;;23.10;99.90;;;;;;5115757;27;20039;-65
2023/06/23 08:41:41;;;;;;;4.65;3.58;;;23.10;99.90;;;;;;5121245;27;20039;-64
2023/06/23 08:44:10;;;;;;;4.18;3.60;;;23.20;99.90;;;;;;5117032;27;20055;-63
2023/06/23 08:46:40;;;;;;;6.00;4.10;;;23.30;99.90;;;;;;5118860;27;20031;-65
2023/06/23 08:49:08;;;;;;;5.22;4.00;;;23.40;99.90;;;;;;5136549;27;20408;-64
2023/06/23 08:51:34;;;;;;;6.97;3.80;;;23.40;99.90;;;;;;5135742;27;20030;-62
2023/06/23 08:54:00;;;;;;;4.15;3.75;;;23.40;99.90;;;;;;5115618;27;20043;-63
2023/06/23 08:56:26;;;;;;;4.65;3.92;;;23.40;99.90;;;;;;5114828;27;20057;-62
2023/06/23 08:58:52;;;;;;;4.57;3.53;;;23.50;99.90;;;;;;5115448;27;20051;-63
2023/06/23 09:01:18;;;;;;;6.55;3.95;;;23.50;99.90;;;;;;5133693;27;20038;-63
2023/06/23 09:03:43;;;;;;;13.93;3.78;;;23.70;99.90;;;;;;5101567;27;20393;-65
2023/06/23 09:06:10;;;;;;;4.78;3.53;;;23.80;99.50;;;;;;5115432;27;20041;-66
2023/06/23 09:08:36;;;;;;;3.05;2.65;;;23.70;99.40;;;;;;5115151;27;20027;-65
2023/06/23 09:11:02;;;;;;;4.85;3.58;;;23.90;99.40;;;;;;5115490;27;20056;-65
2023/06/23 09:13:33;;;;;;;5.68;3.92;;;24.00;99.50;;;;;;5117285;27;20047;-63
2023/06/23 09:16:00;;;;;;;4.22;3.83;;;24.00;98.60;;;;;;5118152;27;20047;-64
2023/06/23 09:18:25;;;;;;;4.18;3.70;;;24.10;99.40;;;;;;5114890;27;20122;-64
2023/06/23 09:20:52;;;;;;;3.83;3.30;;;24.20;98.20;;;;;;5115201;27;20126;-63
2023/06/23 09:23:20;;;;;;;3.88;3.35;;;24.20;97.90;;;;;;5120088;27;20576;-64
2023/06/23 09:25:48;;;;;;;6.28;3.30;;;24.20;97.60;;;;;;5125899;27;20039;-65
2023/06/23 09:28:28;;;;;;;5.05;4.13;;;24.30;97.80;;;;;;5116383;27;20502;-64
2023/06/23 09:30:58;;;;;;;3.47;2.78;;;24.40;97.70;;;;;;5133370;27;20144;-63
2023/06/23 09:33:25;;;;;;;3.35;2.30;;;24.40;95.90;;;;;;5114269;27;20409;-65
2023/06/23 09:35:53;;;;;;;3.05;2.25;;;24.40;94.00;;;;;;5117282;27;20069;-64
2023/06/23 09:38:24;;;;;;;4.43;2.50;;;24.40;93.10;;;;;;5127178;27;20441;-62
2023/06/23 09:41:06;;;;;;;3.20;2.78;;;24.40;94.50;;;;;;5134929;27;20042;-64
2023/06/23 09:43:36;;;;;;;;;;;24.50;93.40;;;;;;5151725;27;20047;-64
2023/06/23 09:46:06;;;;;;;5.18;3.50;;;24.60;95.20;;;;;;5132574;27;20296;-64
2023/06/23 09:48:32;;;;;;;3.33;3.00;;;24.70;94.50;;;;;;5138261;27;20030;-64
2023/06/23 09:51:05;;;;;;;3.20;2.90;;;24.90;94.50;;;;;;5133859;27;20041;-65
2023/06/23 09:53:33;;;;;;;5.07;2.42;;;24.90;94.90;;;;;;5153178;27;20041;-64
2023/06/23 09:56:03;;;;;;;3.40;2.67;;;25.00;92.90;;;;;;5134492;27;20123;-64
2023/06/23 09:58:39;;;;;;;4.53;3.22;;;24.90;93.80;;;;;;5124275;27;20477;-65
2023/06/23 10:01:10;;;;;;;5.13;3.03;;;25.10;94.70;;;;;;5115460;27;20486;-62
2023/06/23 10:03:42;;;;;;;4.88;3.10;;;25.30;95.70;;;;;;5113908;27;20055;-63
2023/06/23 10:06:08;;;;;;;3.40;3.08;;;25.40;95.30;;;;;;5120209;27;20088;-64
2023/06/23 10:08:40;;;;;;;3.70;3.10;;;25.30;94.30;;;;;;5116725;27;20468;-63
2023/06/23 10:11:08;;;;;;;4.65;3.38;;;25.50;95.30;;;;;;5137306;27;20042;-63
2023/06/23 10:13:35;;;;;;;12.10;3.90;;;25.60;95.30;;;;;;5120762;27;20118;-63
2023/06/23 10:16:01;;;;;;;5.32;4.10;;;25.20;94.40;;;;;;5112933;27;20050;-64
2023/06/23 10:18:28;;;;;;;5.47;4.57;;;25.00;95.70;;;;;;5116826;27;20043;-63
2023/06/23 10:20:54;;;;;;;4.90;3.70;;;25.00;96.30;;;;;;5113693;27;20066;-63
2023/06/23 10:23:23;;;;;;;4.32;3.55;;;25.00;96.20;;;;;;5131746;27;20038;-66
2023/06/23 10:25:53;;;;;;;8.23;4.70;;;24.90;95.90;;;;;;5120134;27;20047;-64
2023/06/23 10:28:21;;;;;;;6.75;4.10;;;24.90;95.50;;;;;;5131550;27;20035;-62
2023/06/23 10:30:48;;;;;;;4.10;3.70;;;25.00;96.00;;;;;;5128660;27;20492;-63
2023/06/23 10:33:18;;;;;;;4.85;3.15;;;25.20;96.40;;;;;;5132776;27;20497;-65
2023/06/23 10:35:47;;;;;;;5.03;3.35;;;25.60;95.90;;;;;;5124740;27;20043;-64
2023/06/23 10:38:18;;;;;;;5.45;3.83;;;25.70;95.20;;;;;;5113685;27;20035;-62
2023/06/23 10:40:50;;;;;;;5.95;3.33;;;25.90;94.90;;;;;;5125146;27;20452;-62
2023/06/23 10:43:18;;;;;;;4.72;3.00;;;25.50;94.10;;;;;;5146203;27;20083;-64
2023/06/23 10:45:45;;;;;;;4.35;3.00;;;25.10;93.70;;;;;;5144235;27;20086;-64
2023/06/23 10:48:12;;;;;;;4.30;2.95;;;25.20;94.90;;;;;;5133820;27;20400;-64
2023/06/23 10:50:40;;;;;;;3.53;2.92;;;25.40;94.60;;;;;;5132701;27;20042;-63
2023/06/23 10:53:16;;;;;;;6.95;2.92;;;25.50;93.70;;;;;;5113612;27;20457;-64
2023/06/23 10:55:43;;;;;;;2.70;2.50;;;25.60;92.40;;;;;;5101839;27;20054;-64
2023/06/23 10:58:10;;;;;;;4.28;2.63;;;25.60;92.50;;;;;;5132141;27;20043;-62
2023/06/23 11:00:36;;;;;;;5.38;3.08;;;25.60;92.80;;;;;;5132798;27;20358;-64
2023/06/23 11:03:06;;;;;;;3.97;3.15;;;25.70;93.50;;;;;;5143470;27;20087;-64
2023/06/23 11:05:31;;;;;;;4.03;2.63;;;25.80;92.80;;;;;;5116414;27;20119;-64
2023/06/23 11:08:02;;;;;;;7.78;2.60;;;25.80;91.50;;;;;;5133820;27;20043;-64
2023/06/23 11:10:48;;;;;;;3.88;2.90;;;25.80;91.40;;;;;;5151995;27;20039;-64
2023/06/23 11:13:14;;;;;;;3.35;2.28;;;25.80;90.70;;;;;;5117062;27;20103;-63
2023/06/23 11:15:47;;;;;;;3.92;2.55;;;25.90;91.10;;;;;;5129572;27;20489;-63
2023/06/23 11:18:14;;;;;;;3.65;2.60;;;25.80;90.10;;;;;;5119446;27;20043;-63
2023/06/23 11:20:43;;;;;;;4.60;2.55;;;25.80;90.70;;;;;;5133992;27;20043;-63
2023/06/23 11:23:11;;;;;;;3.80;2.78;;;25.60;90.90;;;;;;5123286;27;20362;-62
2023/06/23 11:25:51;;;;;;;4.28;2.92;;;25.60;91.00;;;;;;5133422;27;20038;-62
2023/06/23 11:28:35;;;;;;;8.90;3.67;;;25.50;90.10;;;;;;5146055;27;20038;-63
2023/06/23 11:31:11;;;;;;;5.38;3.03;;;25.60;91.90;;;;;;5133399;27;20062;-63
2023/06/23 11:33:39;;;;;;;4.70;2.80;;;25.70;91.90;;;;;;5122451;28;20524;-63
2023/06/23 11:36:12;;;;;;;3.40;2.85;;;25.70;91.40;;;;;;5112744;28;20072;-62
2023/06/23 11:38:40;;;;;;;5.38;3.50;;;25.80;91.10;;;;;;5130674;27;20047;-65
2023/06/23 11:41:06;;;;;;;3.97;3.40;;;25.80;91.50;;;;;;5151059;27;20041;-64
2023/06/23 11:43:38;;;;;;;5.18;3.13;;;25.70;90.50;;;;;;5130830;27;20430;-64
2023/06/23 11:46:06;;;;;;;4.45;3.33;;;25.70;90.90;;;;;;5126515;27;20047;-64
2023/06/23 11:48:32;;;;;;;7.07;3.67;;;25.70;90.80;;;;;;5138142;27;20035;-64
2023/06/23 11:50:59;;;;;;;5.18;3.53;;;25.60;90.80;;;;;;5135145;27;20041;-62
2023/06/23 11:53:26;;;;;;;4.72;3.38;;;25.60;91.60;;;;;;5136167;27;20046;-65
2023/06/23 11:55:52;;;;;;;7.32;3.80;;;25.50;91.30;;;;;;5120987;27;20431;-63
2023/06/23 11:58:18;;;;;;;5.72;3.67;;;25.30;91.00;;;;;;5131241;27;20107;-63
2023/06/23 12:00:44;;;;;;;5.47;3.75;;;25.30;91.40;;;;;;5134224;27;20408;-64
2023/06/23 12:03:16;;;;;;;5.35;3.97;;;25.40;92.20;;;;;;5135823;27;20126;-64
2023/06/23 12:05:43;;;;;;;7.10;3.97;;;25.50;92.30;;;;;;5135984;27;20473;-63
2023/06/23 12:08:09;;;;;;;7.82;3.40;;;25.20;91.60;;;;;;5116670;27;20070;-63
2023/06/23 12:10:36;;;;;;;6.47;3.80;;;25.30;91.00;;;;;;5116040;27;20090;-65
2023/06/23 12:13:02;;;;;;;4.22;3.20;;;25.30;91.50;;;;;;5124345;27;20477;-63
2023/06/23 12:15:29;;;;;;;5.97;3.20;;;25.30;89.30;;;;;;5121900;27;20064;-63
2023/06/23 12:17:57;;;;;;;4.93;3.28;;;25.20;90.20;;;;;;5120582;27;20035;-63
2023/06/23 12:20:23;;;;;;;3.78;3.05;;;25.30;90.30;;;;;;5154746;27;20558;-64
2023/06/23 12:22:52;;;;;;;5.50;2.80;;;25.20;90.20;;;;;;5135838;27;20145;-62
2023/06/23 12:25:18;;;;;;;4.38;3.10;;;25.20;89.80;;;;;;5137466;27;20087;-64
2023/06/23 12:27:54;;;;;;;4.03;2.35;;;25.20;87.40;;;;;;5151955;27;20481;-62
2023/06/23 12:30:21;;;;;;;3.17;2.30;;;25.20;87.60;;;;;;5135228;27;20030;-63
2023/06/23 12:32:47;;;;;;;3.08;2.53;;;25.20;86.10;;;;;;5119163;27;20049;-64
2023/06/23 12:35:16;;;;;;;3.72;2.78;;;25.20;86.60;;;;;;5149773;27;20456;-64
2023/06/23 12:37:45;;;;;;;3.92;2.78;;;25.20;85.80;;;;;;5115778;27;20559;-63
2023/06/23 12:40:28;;;;;;;3.38;2.47;;;25.20;85.60;;;;;;5120401;27;20459;-63
2023/06/23 12:42:58;;;;;;;5.55;2.60;;;25.10;83.80;;;;;;5122410;27;20473;-63
2023/06/23 12:45:24;;;;;;;3.95;2.67;;;25.10;87.60;;;;;;5126073;27;20401;-63